createdAt,value
2022-11-11T00:04:13.014Z,3.25
2022-11-11T00:14:17.154Z,3.90
2022-11-11T00:24:41.171Z,4.03
2022-11-11T00:35:05.586Z,4.50
2022-11-11T00:45:09.457Z,3.70
2022-11-11T00:55:13.865Z,4.10
2022-11-11T01:05:16.768Z,4.50
2022-11-11T01:15:20.771Z,4.30
2022-11-11T01:25:23.510Z,4.78
2022-11-11T01:35:28.026Z,4.82
2022-11-11T01:45:49.699Z,5.05
2022-11-11T01:55:54.157Z,4.22
2022-11-11T02:05:57.779Z,4.38
2022-11-11T02:16:02.009Z,5.07
2022-11-11T02:26:07.858Z,5.22
2022-11-11T02:36:15.454Z,5.72
2022-11-11T02:46:19.494Z,5.05
2022-11-11T02:56:36.091Z,5.78
2022-11-11T03:06:40.204Z,6.18
2022-11-11T03:17:00.869Z,6.53
2022-11-11T03:27:04.960Z,7.88
2022-11-11T03:37:27.230Z,7.38
2022-11-11T03:47:31.311Z,7.47
2022-11-11T03:57:33.954Z,7.05
2022-11-11T04:07:55.318Z,8.50
2022-11-11T04:18:02.876Z,8.85
2022-11-11T04:28:25.486Z,8.57
2022-11-11T04:38:45.551Z,9.05
2022-11-11T04:48:49.568Z,9.73
2022-11-11T04:59:12.220Z,9.70
2022-11-11T05:09:16.219Z,9.95
2022-11-11T05:19:36.794Z,9.40
2022-11-11T05:29:40.778Z,9.55
2022-11-11T05:39:43.757Z,9.57
2022-11-11T05:49:47.802Z,9.75
2022-11-11T05:59:50.487Z,8.93
2022-11-11T06:10:14.484Z,9.50
2022-11-11T06:20:17.523Z,9.88
2022-11-11T06:30:46.077Z,9.45
2022-11-11T06:40:44.789Z,9.75
2022-11-11T06:50:49.049Z,8.73
2022-11-11T07:00:52.204Z,10.15
2022-11-11T07:10:56.223Z,9.15
2022-11-11T07:20:58.806Z,9.38
2022-11-11T07:31:02.856Z,9.40
2022-11-11T07:41:06.089Z,9.13
2022-11-11T07:51:10.089Z,8.02
2022-11-11T08:01:12.832Z,9.15
2022-11-11T08:11:38.456Z,8.60
2022-11-11T08:21:41.168Z,8.55
2022-11-11T08:31:45.228Z,8.82
2022-11-11T08:41:48.453Z,9.63
2022-11-11T08:51:52.518Z,8.95
2022-11-11T09:01:55.503Z,9.60
2022-11-11T09:11:59.547Z,8.80
2022-11-11T09:22:02.368Z,8.40
2022-11-11T09:32:06.934Z,8.10
2022-11-11T09:42:18.573Z,8.52
2022-11-11T09:52:27.073Z,8.13
2022-11-11T10:02:35.653Z,8.07
2022-11-11T10:12:45.073Z,8.50
2022-11-11T10:22:52.423Z,8.33
2022-11-11T10:32:59.691Z,9.55
2022-11-11T10:43:02.335Z,9.73
2022-11-11T10:53:15.038Z,9.43
2022-11-11T11:03:23.969Z,10.75
2022-11-11T11:13:35.440Z,10.02
2022-11-11T11:23:40.184Z,9.52
2022-11-11T11:33:55.784Z,8.48
2022-11-11T11:43:58.403Z,8.88
2022-11-11T11:54:23.765Z,6.95
2022-11-11T12:04:47.047Z,7.47
2022-11-11T12:15:05.270Z,6.20
2022-11-11T12:25:17.127Z,5.47
2022-11-11T12:35:39.592Z,6.32
2022-11-11T12:45:48.879Z,5.82
2022-11-11T12:56:02.692Z,5.68
2022-11-11T13:06:20.682Z,6.10
2022-11-11T13:16:26.054Z,5.45
2022-11-11T13:26:34.226Z,5.05
2022-11-11T13:36:48.520Z,5.15
2022-11-11T13:46:51.361Z,5.05
2022-11-11T13:57:04.135Z,4.63
2022-11-11T14:07:09.057Z,4.70
2022-11-11T14:17:16.983Z,4.85
2022-11-11T14:27:26.286Z,5.28
2022-11-11T14:37:52.884Z,5.30
2022-11-11T14:47:56.368Z,5.47
2022-11-11T14:58:06.910Z,4.97
2022-11-11T15:08:22.609Z,5.05
2022-11-11T15:18:48.420Z,4.30
2022-11-11T15:29:06.367Z,5.30
2022-11-11T15:39:14.779Z,5.53
2022-11-11T15:49:38.502Z,5.63
2022-11-11T15:59:42.481Z,7.25
2022-11-11T16:09:46.082Z,7.25
2022-11-11T16:19:51.031Z,6.28
2022-11-11T16:29:53.683Z,6.63
2022-11-11T16:39:58.046Z,8.93
2022-11-11T16:50:06.069Z,8.50
2022-11-11T17:00:14.960Z,9.95
2022-11-11T17:10:19.722Z,11.00
2022-11-11T17:20:23.702Z,10.40
2022-11-11T17:30:26.576Z,9.68
2022-11-11T17:40:31.403Z,9.32
2022-11-11T17:50:34.363Z,8.82
2022-11-11T18:00:38.356Z,5.10
2022-11-11T18:10:41.018Z,5.68
2022-11-11T18:20:45.122Z,4.65
2022-11-11T18:30:47.792Z,5.80
2022-11-11T18:40:51.780Z,7.38
2022-11-11T18:50:55.006Z,6.13
2022-11-11T19:01:09.852Z,5.05
2022-11-11T19:11:12.553Z,5.82
2022-11-11T19:21:18.540Z,6.20
2022-11-11T19:31:23.306Z,6.15
2022-11-11T19:41:28.689Z,6.50
2022-11-11T19:51:31.383Z,9.40
2022-11-11T20:01:36.974Z,7.88
2022-11-11T20:11:42.947Z,7.22
2022-11-11T20:21:46.980Z,7.07
2022-11-11T20:31:49.552Z,7.05
2022-11-11T20:41:53.515Z,7.05
2022-11-11T20:51:56.168Z,6.65
2022-11-11T21:02:00.294Z,9.30
2022-11-11T21:12:03.062Z,8.25
2022-11-11T21:22:10.143Z,10.00
2022-11-11T21:32:13.011Z,9.32
2022-11-11T21:42:17.246Z,9.35
2022-11-11T21:52:19.879Z,7.18
2022-11-11T22:02:23.943Z,7.28
2022-11-11T22:12:26.593Z,6.65
2022-11-11T22:22:30.561Z,8.05
2022-11-11T22:32:33.174Z,6.40
2022-11-11T22:42:37.190Z,5.95
2022-11-11T22:52:39.894Z,6.65
2022-11-11T23:02:43.888Z,6.88
2022-11-11T23:12:46.549Z,7.00
2022-11-11T23:22:50.611Z,8.63
2022-11-11T23:32:53.910Z,7.85
2022-11-11T23:42:58.114Z,6.88
2022-11-11T23:53:00.779Z,6.97
